createdAt,value
2018-06-28T00:01:40.074Z,101557.29
2018-06-28T00:04:09.686Z,101564.61
2018-06-28T00:06:39.352Z,101560.80
2018-06-28T00:09:10.086Z,101556.25
2018-06-28T00:11:39.847Z,101548.53
2018-06-28T00:14:09.486Z,101554.27
2018-06-28T00:16:39.106Z,101557.89
2018-06-28T00:19:08.810Z,101557.69
2018-06-28T00:21:38.920Z,101560.20
2018-06-28T00:24:08.554Z,101557.70
2018-06-28T00:26:38.158Z,101561.41
2018-06-28T00:29:07.786Z,101563.24
2018-06-28T00:31:37.398Z,101568.86
2018-06-28T00:34:07.158Z,101567.18
2018-06-28T00:36:36.782Z,101571.35
2018-06-28T00:39:09.630Z,101568.13
2018-06-28T00:41:39.572Z,101568.15
2018-06-28T00:44:10.306Z,101571.06
2018-06-28T00:46:40.322Z,101568.03
2018-06-28T00:49:09.983Z,101567.32
2018-06-28T00:51:39.695Z,101567.23
2018-06-28T00:54:09.403Z,101564.70
2018-06-28T00:56:39.022Z,101565.09
2018-06-28T00:59:08.698Z,101563.67
2018-06-28T01:01:38.386Z,101568.53
2018-06-28T01:04:08.170Z,101573.98
2018-06-28T01:06:37.801Z,101569.06
2018-06-28T01:09:10.903Z,101571.54
2018-06-28T01:11:41.054Z,101563.42
2018-06-28T01:14:10.704Z,101566.95
2018-06-28T01:16:40.321Z,101569.20
2018-06-28T01:19:10.103Z,101567.99
2018-06-28T01:21:39.741Z,101563.75
2018-06-28T01:24:09.642Z,101567.60
2018-06-28T01:26:39.286Z,101566.89
2018-06-28T01:29:08.907Z,101566.14
2018-06-28T01:31:38.559Z,101571.07
2018-06-28T01:34:08.170Z,101567.27
2018-06-28T01:36:37.847Z,101569.71
2018-06-28T01:39:10.962Z,101577.77
2018-06-28T01:41:57.354Z,101565.97
2018-06-28T01:44:26.946Z,101570.45
2018-06-28T01:46:56.588Z,101579.09
2018-06-28T01:49:26.219Z,101578.41
2018-06-28T01:51:56.089Z,101571.69
2018-06-28T01:54:25.938Z,101559.77
2018-06-28T01:56:55.611Z,101564.92
2018-06-28T01:59:25.181Z,101561.36
2018-06-28T02:01:55.026Z,101566.95
2018-06-28T02:04:24.667Z,101566.81
2018-06-28T02:06:54.295Z,101566.17
2018-06-28T02:09:23.971Z,101567.20
2018-06-28T02:11:53.663Z,101569.34
2018-06-28T02:14:23.266Z,101567.31
2018-06-28T02:16:52.973Z,101573.76
2018-06-28T02:19:23.046Z,101565.63
2018-06-28T02:21:52.685Z,101571.79
2018-06-28T02:24:22.354Z,101571.82
2018-06-28T02:26:52.005Z,101568.93
2018-06-28T02:29:21.899Z,101572.95
2018-06-28T02:31:51.510Z,101575.09
2018-06-28T02:34:21.106Z,101574.70
2018-06-28T02:36:50.723Z,101573.69
2018-06-28T02:39:20.438Z,101570.20
2018-06-28T02:41:50.094Z,101572.72
2018-06-28T02:44:19.941Z,101568.47
2018-06-28T02:46:49.564Z,101574.02
2018-06-28T02:49:19.201Z,101581.00
2018-06-28T02:51:48.855Z,101581.94
2018-06-28T02:54:18.490Z,101575.70
2018-06-28T02:56:48.126Z,101572.16
2018-06-28T02:59:17.743Z,101581.85
2018-06-28T03:01:47.370Z,101577.28
2018-06-28T03:04:16.938Z,101586.64
2018-06-28T03:06:46.526Z,101580.74
2018-06-28T03:09:16.131Z,101581.45
2018-06-28T03:11:45.784Z,101580.06
2018-06-28T03:14:15.736Z,101586.27
2018-06-28T03:16:45.542Z,101583.46
2018-06-28T03:19:15.175Z,101592.37
2018-06-28T03:21:44.822Z,101588.95
2018-06-28T03:24:14.485Z,101594.20
2018-06-28T03:26:44.102Z,101589.43
2018-06-28T03:29:13.741Z,101590.09
2018-06-28T03:31:43.594Z,101588.98
2018-06-28T03:34:13.174Z,101586.47
2018-06-28T03:36:43.200Z,101582.19
2018-06-28T03:39:14.198Z,101582.43
2018-06-28T03:41:44.086Z,101584.12
2018-06-28T03:44:14.147Z,101590.57
2018-06-28T03:46:43.822Z,101588.16
2018-06-28T03:49:13.586Z,101588.98
2018-06-28T03:51:43.404Z,101585.30
2018-06-28T03:54:13.131Z,101591.58
2018-06-28T03:56:42.960Z,101597.50
2018-06-28T03:59:12.590Z,101593.53
2018-06-28T04:01:42.268Z,101594.72
2018-06-28T04:04:11.900Z,101590.15
2018-06-28T04:06:41.592Z,101593.15
2018-06-28T04:09:12.490Z,101600.30
2018-06-28T04:11:42.226Z,101597.17
2018-06-28T04:14:12.055Z,101603.26
2018-06-28T04:16:41.637Z,101599.84
2018-06-28T04:19:11.307Z,101599.55
2018-06-28T04:21:40.923Z,101600.47
2018-06-28T04:24:10.639Z,101594.45
2018-06-28T04:26:40.587Z,101595.54
2018-06-28T04:29:10.513Z,101592.98
2018-06-28T04:31:40.819Z,101595.31
2018-06-28T04:34:10.438Z,101593.20
2018-06-28T04:36:40.078Z,101598.52
2018-06-28T04:39:11.629Z,101600.00
2018-06-28T04:41:41.298Z,101601.20
2018-06-28T04:44:10.967Z,101597.81
2018-06-28T04:46:40.558Z,101599.13
2018-06-28T04:49:10.188Z,101602.03
2018-06-28T04:51:39.794Z,101601.11
2018-06-28T04:54:09.446Z,101603.83
2018-06-28T04:56:39.125Z,101599.66
2018-06-28T04:59:08.817Z,101602.84
2018-06-28T05:01:38.434Z,101601.79
2018-06-28T05:04:08.098Z,101600.98
2018-06-28T05:06:37.707Z,101598.33
2018-06-28T05:09:09.408Z,101599.91
2018-06-28T05:11:39.570Z,101594.95
2018-06-28T05:14:09.584Z,101588.22
2018-06-28T05:16:39.201Z,101580.06
2018-06-28T05:19:08.839Z,101575.34
2018-06-28T05:21:39.186Z,101571.16
2018-06-28T05:24:08.850Z,101571.87
2018-06-28T05:26:38.719Z,101564.52
2018-06-28T05:29:08.364Z,101563.05
2018-06-28T05:31:37.974Z,101569.77
2018-06-28T05:34:07.618Z,101562.66
2018-06-28T05:36:37.838Z,101559.80
2018-06-28T05:39:10.434Z,101561.83
2018-06-28T05:41:40.046Z,101569.16
2018-06-28T05:44:09.674Z,101567.53
2018-06-28T05:46:39.498Z,101569.98
2018-06-28T05:49:09.182Z,101574.04
2018-06-28T05:51:38.790Z,101570.54
2018-06-28T05:54:08.175Z,101571.02
2018-06-28T05:56:38.061Z,101576.66
2018-06-28T05:59:07.666Z,101574.25
2018-06-28T06:01:37.316Z,101572.77
2018-06-28T06:04:06.916Z,101575.72
2018-06-28T06:06:36.541Z,101569.44
2018-06-28T06:09:09.361Z,101572.85
2018-06-28T06:11:39.054Z,101569.67
2018-06-28T06:14:09.886Z,101573.23
2018-06-28T06:16:39.535Z,101569.05
2018-06-28T06:19:09.178Z,101574.45
2018-06-28T06:21:38.826Z,101570.89
2018-06-28T06:24:08.502Z,101570.47
2018-06-28T06:26:38.590Z,101573.73
2018-06-28T06:29:08.281Z,101579.81
2018-06-28T06:31:37.932Z,101575.02
2018-06-28T06:34:07.592Z,101576.23
2018-06-28T06:36:37.199Z,101569.67
2018-06-28T06:39:10.321Z,101572.09
2018-06-28T06:41:40.082Z,101568.29
2018-06-28T06:44:10.138Z,101564.91
2018-06-28T06:46:39.866Z,101569.78
2018-06-28T06:49:09.545Z,101565.59
2018-06-28T06:51:39.182Z,101568.30
2018-06-28T06:54:08.774Z,101567.34
2018-06-28T06:56:38.398Z,101568.18
2018-06-28T06:59:08.062Z,101560.17
2018-06-28T07:01:37.693Z,101565.91
2018-06-28T07:04:07.290Z,101557.91
2018-06-28T07:06:36.936Z,101563.92
2018-06-28T07:09:10.751Z,101566.81
2018-06-28T07:11:40.613Z,101561.86
2018-06-28T07:14:11.274Z,101561.39
2018-06-28T07:16:40.958Z,101568.92
2018-06-28T07:19:10.587Z,101561.32
2018-06-28T07:21:40.526Z,101564.65
2018-06-28T07:24:10.174Z,101562.00
2018-06-28T07:26:40.291Z,101569.84
2018-06-28T07:29:10.639Z,101565.95
2018-06-28T07:31:40.515Z,101565.14
2018-06-28T07:34:10.409Z,101570.54
2018-06-28T07:36:40.067Z,101569.11
2018-06-28T07:39:12.507Z,101573.16
2018-06-28T07:41:42.477Z,101567.87
2018-06-28T07:44:12.150Z,101564.94
2018-06-28T07:46:41.865Z,101568.34
2018-06-28T07:49:11.924Z,101560.05
2018-06-28T07:51:41.652Z,101557.86
2018-06-28T07:54:11.516Z,101561.72
2018-06-28T07:56:41.204Z,101564.36
2018-06-28T07:59:11.446Z,101558.90
2018-06-28T08:01:41.413Z,101557.14
2018-06-28T08:04:11.308Z,101557.88
2018-06-28T08:06:41.006Z,101560.00
2018-06-28T08:09:10.803Z,101558.80
2018-06-28T08:11:40.796Z,101551.67
2018-06-28T08:14:10.519Z,101554.88
2018-06-28T08:16:40.248Z,101551.29
2018-06-28T08:19:09.946Z,101557.86
2018-06-28T08:21:40.005Z,101559.02
2018-06-28T08:24:09.712Z,101555.22
2018-06-28T08:26:39.760Z,101559.42
2018-06-28T08:29:09.450Z,101553.20
2018-06-28T08:31:39.115Z,101557.42
2018-06-28T08:34:08.807Z,101554.91
2018-06-28T08:36:38.931Z,101558.19
2018-06-28T08:39:09.639Z,101547.85
2018-06-28T08:41:39.422Z,101556.78
2018-06-28T08:44:09.127Z,101547.59
2018-06-28T08:46:39.142Z,101545.59
2018-06-28T08:49:09.048Z,101546.58
2018-06-28T08:51:38.787Z,101547.70
2018-06-28T08:54:08.639Z,101531.48
2018-06-28T08:56:38.378Z,101526.72
2018-06-28T08:59:08.082Z,101531.50
2018-06-28T09:01:37.967Z,101534.86
2018-06-28T09:04:07.856Z,101535.20
2018-06-28T09:06:37.630Z,101522.44
2018-06-28T09:09:11.682Z,101531.14
2018-06-28T09:11:42.073Z,101531.13
2018-06-28T09:14:11.931Z,101523.41
2018-06-28T09:16:41.645Z,101526.66
2018-06-28T09:19:11.405Z,101531.25
2018-06-28T09:21:41.134Z,101535.49
2018-06-28T09:24:10.939Z,101518.70
2018-06-28T09:26:40.798Z,101520.74
2018-06-28T09:29:10.686Z,101517.03
2018-06-28T09:31:40.594Z,101510.81
2018-06-28T09:34:10.322Z,101510.33
2018-06-28T09:36:40.157Z,101503.62
2018-06-28T09:39:11.510Z,101504.44
2018-06-28T09:41:41.406Z,101502.38
2018-06-28T09:44:11.127Z,101506.12
2018-06-28T09:46:41.162Z,101500.99
2018-06-28T09:49:11.011Z,101493.37
2018-06-28T09:51:40.975Z,101496.00
2018-06-28T09:54:11.009Z,101492.67
2018-06-28T09:56:40.739Z,101491.63
2018-06-28T09:59:10.622Z,101492.64
2018-06-28T10:01:40.510Z,101484.02
2018-06-28T10:04:10.230Z,101485.17
2018-06-28T10:06:40.141Z,101480.28
2018-06-28T10:09:10.463Z,101477.22
2018-06-28T10:11:40.261Z,101470.84
2018-06-28T10:14:09.965Z,101457.23
2018-06-28T10:16:39.735Z,101470.97
2018-06-28T10:19:09.732Z,101466.27
2018-06-28T10:21:39.558Z,101462.38
2018-06-28T10:24:09.462Z,101453.59
2018-06-28T10:26:39.342Z,101453.60
2018-06-28T10:29:09.088Z,101449.45
2018-06-28T10:31:39.091Z,101437.09
2018-06-28T10:34:09.182Z,101439.91
2018-06-28T10:36:39.011Z,101439.09
2018-06-28T10:39:10.757Z,101433.34
2018-06-28T10:41:40.738Z,101430.42
2018-06-28T10:44:10.497Z,101433.15
2018-06-28T10:46:40.430Z,101425.50
2018-06-28T10:49:10.611Z,101419.97
2018-06-28T10:51:40.282Z,101422.98
2018-06-28T10:54:11.056Z,101412.63
2018-06-28T10:56:40.975Z,101426.03
2018-06-28T10:59:10.880Z,101416.81
2018-06-28T11:01:40.688Z,101416.89
2018-06-28T11:04:10.027Z,101409.12
2018-06-28T11:06:39.773Z,101406.37
2018-06-28T11:09:11.237Z,101410.80
2018-06-28T11:11:41.624Z,101405.61
2018-06-28T11:14:11.482Z,101402.61
2018-06-28T11:16:41.286Z,101404.69
2018-06-28T11:19:11.116Z,101395.83
2018-06-28T11:21:40.614Z,101401.42
2018-06-28T11:24:10.686Z,101389.80
2018-06-28T11:26:40.430Z,101388.20
2018-06-28T11:29:10.402Z,101390.78
2018-06-28T11:31:40.410Z,101386.03
2018-06-28T11:34:10.830Z,101377.11
2018-06-28T11:36:40.889Z,101382.30
2018-06-28T11:39:12.252Z,101369.48
2018-06-28T11:41:42.221Z,101367.77
2018-06-28T11:44:12.599Z,101365.14
2018-06-28T11:46:42.333Z,101363.96
2018-06-28T11:49:12.111Z,101353.97
2018-06-28T11:51:42.334Z,101361.38
2018-06-28T11:54:12.123Z,101359.05
2018-06-28T11:56:42.075Z,101352.75
2018-06-28T11:59:12.033Z,101345.42
2018-06-28T12:01:41.671Z,101340.88
2018-06-28T12:04:11.708Z,101340.38
2018-06-28T12:06:41.627Z,101337.81
2018-06-28T12:09:12.349Z,101341.66
2018-06-28T12:11:43.534Z,101337.70
2018-06-28T12:14:13.482Z,101340.02
2018-06-28T12:16:43.427Z,101333.05
2018-06-28T12:19:13.355Z,101330.06
2018-06-28T12:21:45.188Z,101327.06
2018-06-28T12:24:15.128Z,101327.22
2018-06-28T12:26:45.261Z,101322.78
2018-06-28T12:29:17.591Z,101316.58
2018-06-28T12:31:47.711Z,101317.72
2018-06-28T12:34:18.435Z,101313.28
2018-06-28T12:36:48.307Z,101308.28
2018-06-28T12:39:18.185Z,101307.24
2018-06-28T12:41:48.058Z,101302.72
2018-06-28T12:44:17.839Z,101301.46
2018-06-28T12:48:12.478Z,101302.09
2018-06-28T12:50:42.382Z,101298.24
2018-06-28T12:53:13.512Z,101300.63
2018-06-28T12:56:24.971Z,101294.44
2018-06-28T12:58:56.512Z,101285.76
2018-06-28T13:01:27.574Z,101288.31
2018-06-28T13:03:58.130Z,101287.22
2018-06-28T13:06:28.122Z,101282.25
2018-06-28T13:08:58.879Z,101283.54
2018-06-28T13:11:29.473Z,101275.32
2018-06-28T13:13:59.318Z,101271.44
2018-06-28T13:16:29.837Z,101270.84
2018-06-28T13:18:59.646Z,101270.10
2018-06-28T13:21:29.866Z,101269.97
2018-06-28T13:23:59.669Z,101262.14
2018-06-28T13:26:29.842Z,101264.02
2018-06-28T13:28:59.791Z,101255.52
2018-06-28T13:31:31.338Z,101249.00
2018-06-28T13:34:01.356Z,101262.38
2018-06-28T13:36:31.248Z,101255.09
2018-06-28T13:39:01.281Z,101246.98
2018-06-28T13:41:34.392Z,101243.65
2018-06-28T13:44:03.820Z,101241.41
2018-06-28T13:46:33.729Z,101231.56
2018-06-28T13:49:04.317Z,101236.53
2018-06-28T13:51:34.337Z,101230.91
2018-06-28T13:54:04.230Z,101228.76
2018-06-28T13:56:34.048Z,101228.27
2018-06-28T13:59:03.855Z,101230.84
2018-06-28T14:01:33.686Z,101214.66
2018-06-28T14:04:04.159Z,101213.89
2018-06-28T14:06:33.998Z,101211.22
2018-06-28T14:09:04.198Z,101205.40
2018-06-28T14:11:34.151Z,101211.59
2018-06-28T14:14:04.148Z,101199.62
2018-06-28T14:16:34.556Z,101198.78
2018-06-28T14:19:04.491Z,101185.70
2018-06-28T14:21:34.467Z,101195.55
2018-06-28T14:24:06.739Z,101196.00
2018-06-28T14:26:36.931Z,101189.37
2018-06-28T14:29:07.046Z,101187.05
2018-06-28T14:31:37.120Z,101187.05
2018-06-28T14:34:07.198Z,101182.58
2018-06-28T14:36:37.090Z,101187.80
2018-06-28T14:39:10.900Z,101182.39
2018-06-28T14:41:40.736Z,101190.63
2018-06-28T14:44:10.584Z,101183.44
2018-06-28T14:46:40.611Z,101178.48
2018-06-28T14:49:10.746Z,101183.66
2018-06-28T14:51:40.706Z,101181.24
2018-06-28T14:54:10.595Z,101183.98
2018-06-28T14:56:40.578Z,101175.13
2018-06-28T14:59:10.485Z,101177.31
2018-06-28T15:01:40.638Z,101164.77
2018-06-28T15:04:10.708Z,101162.99
2018-06-28T15:06:40.894Z,101170.36
2018-06-28T15:09:12.366Z,101168.03
2018-06-28T15:11:43.014Z,101172.95
2018-06-28T15:14:12.918Z,101166.41
2018-06-28T15:16:42.671Z,101169.11
2018-06-28T15:19:12.653Z,101160.60
2018-06-28T15:21:42.529Z,101152.59
2018-06-28T15:24:12.444Z,101155.41
2018-06-28T15:26:42.259Z,101150.98
2018-06-28T15:29:12.087Z,101147.66
2018-06-28T15:31:41.963Z,101149.88
2018-06-28T15:34:11.766Z,101146.02
2018-06-28T15:36:45.081Z,101144.84
2018-06-28T15:39:15.270Z,101144.21
2018-06-28T15:41:45.362Z,101150.39
2018-06-28T15:44:15.146Z,101143.16
2018-06-28T15:46:44.917Z,101148.86
2018-06-28T15:49:14.847Z,101142.00
2018-06-28T15:51:44.666Z,101141.33
2018-06-28T15:54:14.851Z,101137.67
2018-06-28T15:56:44.838Z,101137.50
2018-06-28T15:59:14.636Z,101136.56
2018-06-28T16:01:44.995Z,101125.94
2018-06-28T16:04:14.885Z,101124.78
2018-06-28T16:06:45.143Z,101115.22
2018-06-28T16:09:14.930Z,101126.45
2018-06-28T16:11:44.760Z,101130.28
2018-06-28T16:14:14.732Z,101123.25
2018-06-28T16:16:44.606Z,101118.41
2018-06-28T16:19:14.415Z,101119.19
2018-06-28T16:21:44.284Z,101116.89
2018-06-28T16:24:14.221Z,101121.19
2018-06-28T16:26:45.972Z,101122.51
2018-06-28T16:29:15.791Z,101113.05
2018-06-28T16:31:45.470Z,101115.89
2018-06-28T16:34:15.341Z,101116.91
2018-06-28T16:36:45.183Z,101119.58
2018-06-28T16:39:14.931Z,101110.21
2018-06-28T16:41:44.718Z,101118.75
2018-06-28T16:44:14.511Z,101115.25
2018-06-28T16:46:44.232Z,101119.92
2018-06-28T16:49:14.106Z,101108.48
2018-06-28T16:51:43.906Z,101112.56
2018-06-28T16:54:13.842Z,101115.49
2018-06-28T16:56:43.835Z,101115.68
2018-06-28T16:59:13.807Z,101102.16
2018-06-28T17:01:43.645Z,101103.52
2018-06-28T17:04:13.406Z,101104.31
2018-06-28T17:06:44.906Z,101096.09
2018-06-28T17:09:15.126Z,101105.53
2018-06-28T17:11:44.871Z,101100.84
2018-06-28T17:14:14.763Z,101097.32
2018-06-28T17:16:44.842Z,101101.14
2018-06-28T17:19:14.706Z,101104.30
2018-06-28T17:21:44.378Z,101104.63
2018-06-28T17:24:14.343Z,101106.77
2018-06-28T17:26:44.250Z,101099.94
2018-06-28T17:29:14.056Z,101102.35
2018-06-28T17:31:44.027Z,101100.11
2018-06-28T17:34:13.892Z,101098.00
2018-06-28T17:36:43.797Z,101098.39
2018-06-28T17:39:13.678Z,101093.25
2018-06-28T17:41:43.553Z,101098.53
2018-06-28T17:44:13.513Z,101091.03
2018-06-28T17:46:43.818Z,101091.72
2018-06-28T17:49:13.766Z,101099.53
2018-06-28T17:51:43.386Z,101101.36
2018-06-28T17:54:13.444Z,101101.23
2018-06-28T17:56:43.466Z,101101.97
2018-06-28T17:59:13.331Z,101104.70
2018-06-28T18:01:43.084Z,101106.50
2018-06-28T18:04:12.578Z,101102.04
2018-06-28T18:06:42.594Z,101103.31
2018-06-28T18:09:17.587Z,101094.08
2018-06-28T18:11:47.794Z,101098.49
2018-06-28T18:14:17.727Z,101098.05
2018-06-28T18:16:47.514Z,101101.01
2018-06-28T18:19:17.434Z,101092.66
2018-06-28T18:21:47.226Z,101092.05
2018-06-28T18:24:16.860Z,101087.95
2018-06-28T18:26:46.822Z,101087.49
2018-06-28T18:29:16.676Z,101093.29
2018-06-28T18:31:46.554Z,101098.06
2018-06-28T18:34:16.455Z,101105.84
2018-06-28T18:36:46.233Z,101102.21
2018-06-28T18:39:16.222Z,101104.95
2018-06-28T18:41:46.012Z,101101.91
2018-06-28T18:44:15.906Z,101106.35
2018-06-28T18:46:45.878Z,101103.66
2018-06-28T18:49:16.146Z,101107.34
2018-06-28T18:51:46.213Z,101104.84
2018-06-28T18:54:15.949Z,101102.27
2018-06-28T18:56:45.738Z,101106.12
2018-06-28T18:59:15.864Z,101106.95
2018-06-28T19:01:45.712Z,101107.63
2018-06-28T19:04:15.789Z,101108.91
2018-06-28T19:06:45.500Z,101108.49
2018-06-28T19:09:15.463Z,101108.39
2018-06-28T19:11:45.490Z,101109.33
2018-06-28T19:14:20.401Z,101110.88
2018-06-28T19:16:57.270Z,101114.11
2018-06-28T19:19:27.111Z,101113.98
2018-06-28T19:22:02.048Z,101118.16
2018-06-28T19:24:32.561Z,101120.73
2018-06-28T19:27:02.419Z,101125.17
2018-06-28T19:29:37.539Z,101122.13
2018-06-28T19:32:12.671Z,101128.89
2018-06-28T19:34:42.597Z,101130.01
2018-06-28T19:37:17.598Z,101135.88
2018-06-28T19:39:52.563Z,101132.13
2018-06-28T19:42:27.314Z,101137.98
2018-06-28T19:44:57.442Z,101131.80
2018-06-28T19:47:27.177Z,101135.34
2018-06-28T19:50:02.011Z,101135.13
2018-06-28T19:52:36.971Z,101133.08
2018-06-28T19:55:06.924Z,101143.73
2018-06-28T19:57:36.620Z,101139.59
2018-06-28T20:00:06.656Z,101140.92
2018-06-28T20:02:41.715Z,101138.77
2018-06-28T20:05:11.451Z,101147.16
2018-06-28T20:07:41.353Z,101151.84
2018-06-28T20:10:11.204Z,101148.22
2018-06-28T20:12:46.245Z,101155.61
2018-06-28T20:15:21.078Z,101155.97
2018-06-28T20:18:01.872Z,101151.50
2018-06-28T20:20:34.171Z,101160.13
2018-06-28T20:23:03.953Z,101169.41
2018-06-28T20:25:33.765Z,101159.59
2018-06-28T20:28:08.436Z,101162.55
2018-06-28T20:30:43.240Z,101158.08
2018-06-28T20:33:18.174Z,101163.09
2018-06-28T20:35:48.090Z,101169.80
2018-06-28T20:38:17.758Z,101171.86
2018-06-28T20:40:47.442Z,101163.91
2018-06-28T20:43:17.123Z,101165.37
2018-06-28T20:45:46.923Z,101165.27
2018-06-28T20:48:16.813Z,101166.53
2018-06-28T20:50:46.551Z,101166.38
2018-06-28T20:53:16.317Z,101170.58
2018-06-28T20:55:45.954Z,101172.59
2018-06-28T20:58:15.610Z,101181.11
2018-06-28T21:00:45.379Z,101187.90
2018-06-28T21:03:15.014Z,101178.74
2018-06-28T21:05:44.695Z,101177.91
2018-06-28T21:08:14.357Z,101185.73
2018-06-28T21:10:43.986Z,101184.28
2018-06-28T21:13:13.600Z,101193.98
2018-06-28T21:15:43.261Z,101194.13
2018-06-28T21:18:13.014Z,101192.16
2018-06-28T21:20:42.682Z,101187.91
2018-06-28T21:23:12.629Z,101193.70
2018-06-28T21:25:42.378Z,101191.12
2018-06-28T21:28:12.068Z,101192.59
2018-06-28T21:30:41.733Z,101192.27
2018-06-28T21:33:11.666Z,101195.41
2018-06-28T21:35:41.376Z,101192.02
2018-06-28T21:38:11.083Z,101197.97
2018-06-28T21:40:40.790Z,101197.25
2018-06-28T21:43:10.425Z,101204.21
2018-06-28T21:45:40.038Z,101200.52
2018-06-28T21:48:09.672Z,101199.36
2018-06-28T21:50:39.338Z,101201.03
2018-06-28T21:53:08.976Z,101197.41
2018-06-28T21:55:38.769Z,101198.75
2018-06-28T21:58:08.330Z,101195.04
2018-06-28T22:00:39.039Z,101192.43
2018-06-28T22:03:09.360Z,101194.41
2018-06-28T22:05:39.022Z,101188.75
2018-06-28T22:08:08.915Z,101188.88
2018-06-28T22:10:38.393Z,101189.95
2018-06-28T22:13:08.053Z,101196.13
2018-06-28T22:15:37.746Z,101202.61
2018-06-28T22:18:07.409Z,101202.78
2018-06-28T22:20:37.109Z,101200.65
2018-06-28T22:23:06.785Z,101208.36
2018-06-28T22:25:36.470Z,101206.47
2018-06-28T22:28:06.229Z,101208.73
2018-06-28T22:30:35.918Z,101201.64
2018-06-28T22:33:05.629Z,101204.80
2018-06-28T22:35:35.282Z,101205.50
2018-06-28T22:38:05.062Z,101200.07
2018-06-28T22:40:34.745Z,101201.14
2018-06-28T22:43:04.400Z,101206.59
2018-06-28T22:45:34.090Z,101207.55
2018-06-28T22:48:03.816Z,101208.41
2018-06-28T22:50:33.478Z,101211.53
2018-06-28T22:53:03.169Z,101211.53
2018-06-28T22:55:32.862Z,101215.52
2018-06-28T22:58:02.526Z,101219.69
2018-06-28T23:00:33.061Z,101214.52
2018-06-28T23:03:02.750Z,101215.95
2018-06-28T23:05:32.459Z,101221.89
2018-06-28T23:08:02.194Z,101221.66
2018-06-28T23:10:31.900Z,101223.18
2018-06-28T23:13:01.790Z,101219.44
2018-06-28T23:15:31.109Z,101218.95
2018-06-28T23:18:00.805Z,101218.44
2018-06-28T23:20:30.437Z,101217.95
2018-06-28T23:23:00.568Z,101223.34
2018-06-28T23:25:30.390Z,101224.63
2018-06-28T23:28:00.074Z,101219.36
2018-06-28T23:30:29.806Z,101217.70
2018-06-28T23:32:59.752Z,101216.59
2018-06-28T23:35:29.438Z,101216.24
2018-06-28T23:37:59.073Z,101217.33
2018-06-28T23:40:28.751Z,101213.34
2018-06-28T23:42:58.354Z,101214.28
2018-06-28T23:45:28.035Z,101213.91
2018-06-28T23:47:57.677Z,101212.95
2018-06-28T23:50:27.346Z,101218.87
2018-06-28T23:52:56.973Z,101221.62
2018-06-28T23:55:26.639Z,101223.34
2018-06-28T23:57:56.259Z,101216.22
